createdAt,value
2018-08-24T00:00:41.590Z,13.03
2018-08-24T00:03:44.858Z,12.27
2018-08-24T00:06:48.194Z,11.70
2018-08-24T00:09:51.973Z,13.53
2018-08-24T00:12:55.359Z,13.50
2018-08-24T00:15:58.846Z,14.57
2018-08-24T00:19:02.095Z,13.00
2018-08-24T00:22:05.302Z,13.10
2018-08-24T00:25:08.490Z,15.13
2018-08-24T00:28:11.746Z,17.47
2018-08-24T00:31:14.947Z,18.17
2018-08-24T00:34:18.283Z,18.17
2018-08-24T00:37:21.548Z,16.90
2018-08-24T00:40:24.882Z,18.60
2018-08-24T00:43:28.219Z,18.67
2018-08-24T00:46:31.574Z,20.60
2018-08-24T00:49:34.942Z,19.80
2018-08-24T00:52:38.249Z,18.33
2018-08-24T00:55:41.439Z,20.03
2018-08-24T00:58:44.765Z,22.47
2018-08-24T01:01:48.026Z,20.07
2018-08-24T01:04:51.338Z,19.37
2018-08-24T01:07:59.930Z,19.63
2018-08-24T01:11:03.371Z,19.60
2018-08-24T01:14:06.690Z,22.67
2018-08-24T01:17:15.467Z,22.17
2018-08-24T01:20:23.165Z,19.73
2018-08-24T01:23:28.577Z,17.40
2018-08-24T01:26:31.804Z,19.60
2018-08-24T01:29:38.193Z,20.93
2018-08-24T01:32:41.478Z,19.33
2018-08-24T01:35:45.108Z,16.23
2018-08-24T01:38:48.405Z,16.10
2018-08-24T01:41:51.634Z,17.43
2018-08-24T01:44:54.953Z,17.63
2018-08-24T01:47:58.226Z,19.57
2018-08-24T01:51:01.518Z,20.60
2018-08-24T01:54:04.818Z,19.93
2018-08-24T01:57:08.037Z,20.03
2018-08-24T02:00:13.644Z,16.80
2018-08-24T02:03:16.929Z,27.80
2018-08-24T02:06:20.251Z,19.00
2018-08-24T02:09:23.835Z,17.00
2018-08-24T02:12:32.650Z,14.93
2018-08-24T02:15:40.398Z,16.13
2018-08-24T02:18:49.174Z,17.23
2018-08-24T02:21:58.086Z,16.03
2018-08-24T02:25:01.303Z,15.50
2018-08-24T02:28:04.962Z,17.83
2018-08-24T02:31:08.314Z,15.13
2018-08-24T02:34:11.563Z,14.40
2018-08-24T02:37:14.926Z,15.60
2018-08-24T02:40:18.258Z,17.50
2018-08-24T02:43:21.526Z,15.80
2018-08-24T02:46:24.750Z,16.40
2018-08-24T02:49:28.052Z,16.67
2018-08-24T02:52:31.507Z,13.73
2018-08-24T02:55:34.851Z,14.70
2018-08-24T02:58:38.118Z,16.73
2018-08-24T03:01:41.452Z,15.03
2018-08-24T03:04:44.764Z,16.00
2018-08-24T03:07:48.099Z,16.70
2018-08-24T03:10:51.434Z,16.93
2018-08-24T03:13:54.647Z,16.13
2018-08-24T03:17:03.574Z,17.27
2018-08-24T03:20:07.067Z,16.83
2018-08-24T03:23:10.351Z,17.33
2018-08-24T03:26:13.899Z,15.13
2018-08-24T03:29:17.282Z,15.73
2018-08-24T03:32:20.558Z,15.20
2018-08-24T03:35:23.852Z,13.30
2018-08-24T03:38:27.132Z,13.90
2018-08-24T03:41:30.416Z,13.57
2018-08-24T03:44:33.770Z,13.23
2018-08-24T03:47:46.821Z,12.23
2018-08-24T03:50:50.073Z,11.63
2018-08-24T03:53:53.402Z,11.20
2018-08-24T03:56:57.750Z,11.83
2018-08-24T04:00:01.022Z,12.87
2018-08-24T04:03:04.570Z,11.90
2018-08-24T04:06:08.027Z,9.30
2018-08-24T04:09:11.807Z,11.67
2018-08-24T04:12:15.254Z,8.27
2018-08-24T04:15:18.665Z,9.30
2018-08-24T04:18:21.854Z,11.10
2018-08-24T04:21:25.249Z,7.90
2018-08-24T04:24:28.550Z,7.53
2018-08-24T04:27:31.826Z,8.20
2018-08-24T04:30:35.107Z,8.47
2018-08-24T04:33:38.330Z,8.50
2018-08-24T04:36:41.586Z,7.83
2018-08-24T04:39:44.835Z,8.70
2018-08-24T04:42:48.372Z,9.33
2018-08-24T04:45:51.642Z,9.10
2018-08-24T04:48:54.929Z,8.97
2018-08-24T04:51:58.202Z,8.93
2018-08-24T04:55:01.406Z,8.77
2018-08-24T04:58:04.725Z,8.40
2018-08-24T05:01:08.073Z,8.80
2018-08-24T05:04:11.326Z,9.57
2018-08-24T05:07:14.626Z,8.70
2018-08-24T05:10:17.915Z,10.03
2018-08-24T05:13:21.225Z,8.93
2018-08-24T05:16:24.499Z,7.93
2018-08-24T05:19:27.813Z,9.67
2018-08-24T05:22:31.077Z,8.20
2018-08-24T05:25:34.388Z,6.90
2018-08-24T05:28:37.699Z,8.10
2018-08-24T05:31:40.982Z,8.43
2018-08-24T05:34:44.262Z,6.87
2018-08-24T05:37:47.487Z,7.20
2018-08-24T05:40:50.799Z,8.87
2018-08-24T05:43:54.087Z,6.50
2018-08-24T05:50:44.586Z,7.67
2018-08-24T05:53:47.964Z,7.10
2018-08-24T05:56:51.112Z,7.43
2018-08-24T05:59:54.462Z,7.57
2018-08-24T06:02:57.813Z,6.83
2018-08-24T06:06:01.517Z,7.27
2018-08-24T06:09:12.863Z,7.63
2018-08-24T06:12:16.156Z,8.03
2018-08-24T06:15:19.411Z,7.73
2018-08-24T06:18:22.703Z,7.50
2018-08-24T06:21:26.074Z,8.73
2018-08-24T06:24:29.396Z,7.97
2018-08-24T06:27:32.627Z,7.90
2018-08-24T06:30:35.910Z,7.73
2018-08-24T06:33:39.098Z,9.77
2018-08-24T06:36:42.383Z,11.60
2018-08-24T06:39:45.702Z,9.47
2018-08-24T06:42:49.007Z,8.37
2018-08-24T06:45:52.315Z,7.97
2018-08-24T06:48:55.648Z,9.00
2018-08-24T06:51:58.958Z,10.87
2018-08-24T06:55:02.364Z,15.50
2018-08-24T06:58:05.780Z,10.33
2018-08-24T07:01:09.098Z,10.77
2018-08-24T07:04:12.456Z,8.97
2018-08-24T07:07:15.804Z,9.60
2018-08-24T07:10:19.002Z,10.47
2018-08-24T07:13:22.227Z,11.70
2018-08-24T07:16:25.538Z,11.77
2018-08-24T07:19:45.927Z,12.77
2018-08-24T07:22:57.822Z,13.33
2018-08-24T07:26:06.301Z,12.13
2018-08-24T07:29:09.671Z,12.83
2018-08-24T07:32:12.970Z,12.80
2018-08-24T07:35:16.398Z,12.03
2018-08-24T07:38:19.638Z,14.50
2018-08-24T07:41:22.916Z,14.17
2018-08-24T07:44:26.337Z,13.57
2018-08-24T07:47:35.103Z,13.97
2018-08-24T07:50:38.447Z,13.13
2018-08-24T07:53:41.817Z,13.47
2018-08-24T07:56:45.091Z,13.97
2018-08-24T07:59:48.619Z,13.23
2018-08-24T08:02:51.912Z,12.67
2018-08-24T08:05:55.246Z,12.20
2018-08-24T08:08:58.766Z,12.00
2018-08-24T08:12:02.034Z,12.60
2018-08-24T08:15:09.423Z,12.07
2018-08-24T08:18:12.740Z,13.20
2018-08-24T08:21:16.022Z,13.17
2018-08-24T08:24:19.327Z,13.20
2018-08-24T08:27:22.630Z,12.53
2018-08-24T08:30:25.948Z,14.27
2018-08-24T08:33:29.254Z,14.43
2018-08-24T08:36:32.486Z,19.37
2018-08-24T08:39:35.726Z,16.30
2018-08-24T08:42:38.954Z,15.30
2018-08-24T08:45:42.165Z,15.13
2018-08-24T08:48:45.396Z,15.70
2018-08-24T08:51:48.732Z,16.80
2018-08-24T08:54:52.476Z,16.83
2018-08-24T08:57:55.913Z,16.83
2018-08-24T09:00:59.485Z,15.47
2018-08-24T09:04:03.132Z,16.20
2018-08-24T09:07:06.410Z,15.10
2018-08-24T09:10:09.684Z,15.00
2018-08-24T09:13:13.024Z,15.07
2018-08-24T09:16:16.308Z,16.30
2018-08-24T09:19:24.925Z,15.40
2018-08-24T09:22:33.754Z,13.53
2018-08-24T09:25:42.628Z,13.43
2018-08-24T09:28:46.231Z,12.60
2018-08-24T09:31:52.912Z,12.63
2018-08-24T09:34:56.442Z,13.27
2018-08-24T09:37:59.675Z,12.63
2018-08-24T09:41:02.889Z,12.80
2018-08-24T09:44:06.219Z,13.57
2018-08-24T09:47:15.094Z,12.33
2018-08-24T09:50:23.619Z,12.47
2018-08-24T09:53:32.334Z,11.40
2018-08-24T09:56:36.663Z,10.87
2018-08-24T09:59:39.922Z,10.33
2018-08-24T10:02:44.148Z,10.77
2018-08-24T10:05:52.704Z,10.63
2018-08-24T10:08:55.996Z,10.90
2018-08-24T10:11:59.308Z,10.20
2018-08-24T10:15:02.314Z,10.33
2018-08-24T10:18:05.714Z,9.83
2018-08-24T10:21:09.490Z,9.50
2018-08-24T10:24:12.710Z,8.53
2018-08-24T10:27:16.083Z,8.30
2018-08-24T10:30:21.466Z,8.13
2018-08-24T10:33:24.863Z,8.23
2018-08-24T10:36:28.175Z,7.60
2018-08-24T10:39:31.439Z,7.80
2018-08-24T10:42:34.696Z,9.07
2018-08-24T10:45:38.003Z,6.80
2018-08-24T10:48:41.355Z,8.13
2018-08-24T10:51:44.656Z,8.93
2018-08-24T10:54:47.919Z,9.57
2018-08-24T10:57:51.118Z,9.07
2018-08-24T11:00:54.398Z,9.23
2018-08-24T11:03:57.797Z,9.30
2018-08-24T11:07:01.073Z,9.37
2018-08-24T11:10:04.402Z,9.87
2018-08-24T11:13:07.927Z,10.73
2018-08-24T11:16:11.294Z,9.90
2018-08-24T11:19:14.575Z,10.77
2018-08-24T11:22:17.878Z,11.07
2018-08-24T11:25:21.237Z,9.47
2018-08-24T11:28:24.542Z,10.50
2018-08-24T11:31:27.822Z,8.97
2018-08-24T11:34:31.022Z,9.30
2018-08-24T11:37:34.326Z,10.87
2018-08-24T11:40:37.618Z,10.03
2018-08-24T11:43:40.986Z,10.80
2018-08-24T11:46:44.325Z,12.43
2018-08-24T11:49:49.255Z,12.97
2018-08-24T11:52:52.518Z,14.73
2018-08-24T11:55:55.794Z,17.50
2018-08-24T11:58:59.100Z,14.30
2018-08-24T12:02:02.349Z,12.93
2018-08-24T12:05:05.702Z,14.63
2018-08-24T12:08:09.205Z,13.13
2018-08-24T12:11:12.346Z,11.77
2018-08-24T12:14:15.737Z,13.53
2018-08-24T12:17:39.238Z,12.17
2018-08-24T12:20:42.572Z,13.33
2018-08-24T12:23:45.931Z,12.77
2018-08-24T12:26:49.219Z,16.73
2018-08-24T12:29:52.569Z,11.60
2018-08-24T12:32:55.790Z,11.90
2018-08-24T12:35:59.106Z,11.63
2018-08-24T12:42:32.026Z,11.97
2018-08-24T12:45:35.305Z,12.43
2018-08-24T12:48:38.621Z,13.00
2018-08-24T12:51:41.810Z,15.37
2018-08-24T12:54:45.158Z,11.63
2018-08-24T12:57:48.430Z,12.73
2018-08-24T13:00:51.718Z,10.23
2018-08-24T13:03:54.966Z,11.40
2018-08-24T13:06:58.214Z,8.80
2018-08-24T13:10:02.010Z,9.73
2018-08-24T13:13:07.141Z,10.57
2018-08-24T13:16:10.526Z,8.83
2018-08-24T13:19:13.722Z,8.50
2018-08-24T13:22:17.003Z,7.67
2018-08-24T13:25:20.300Z,9.97
2018-08-24T13:28:23.611Z,8.17
2018-08-24T13:31:26.850Z,8.40
2018-08-24T13:34:30.217Z,10.87
2018-08-24T13:37:33.438Z,8.03
2018-08-24T13:40:36.738Z,8.37
2018-08-24T13:43:40.090Z,8.17
2018-08-24T13:46:43.381Z,6.90
2018-08-24T13:49:46.634Z,6.70
2018-08-24T13:52:49.714Z,7.57
2018-08-24T13:55:52.808Z,7.20
2018-08-24T13:58:55.872Z,7.30
2018-08-24T14:01:58.956Z,10.23
2018-08-24T14:05:02.119Z,7.07
2018-08-24T14:08:05.198Z,7.17
2018-08-24T14:11:08.260Z,6.70
2018-08-24T14:14:11.369Z,7.43
2018-08-24T14:17:14.438Z,7.43
2018-08-24T14:20:18.304Z,8.80
2018-08-24T14:23:21.393Z,7.17
2018-08-24T14:26:24.525Z,6.13
2018-08-24T14:29:27.546Z,9.27
2018-08-24T14:32:30.629Z,8.50
2018-08-24T14:35:33.702Z,7.00
2018-08-24T14:38:36.795Z,7.23
2018-08-24T14:41:39.874Z,7.00
2018-08-24T14:44:42.934Z,12.13
2018-08-24T14:47:45.997Z,7.40
2018-08-24T14:50:49.065Z,7.67
2018-08-24T14:53:53.322Z,6.70
2018-08-24T14:56:56.397Z,11.07
2018-08-24T14:59:59.457Z,7.13
2018-08-24T15:03:09.461Z,7.07
2018-08-24T15:06:12.550Z,7.93
2018-08-24T15:09:15.614Z,7.47
2018-08-24T15:12:18.693Z,6.80
2018-08-24T15:15:21.761Z,6.57
2018-08-24T15:18:24.850Z,6.13
2018-08-24T15:21:27.937Z,8.00
2018-08-24T15:24:31.013Z,7.30
2018-08-24T15:27:34.085Z,5.87
2018-08-24T15:30:37.182Z,5.30
2018-08-24T15:33:40.232Z,5.93
2018-08-24T15:36:43.308Z,5.03
2018-08-24T15:39:46.398Z,6.83
2018-08-24T15:42:49.449Z,4.73
2018-08-24T15:45:52.637Z,4.37
2018-08-24T15:48:55.678Z,4.53
2018-08-24T15:51:58.745Z,4.60
2018-08-24T15:55:05.543Z,3.73
2018-08-24T15:58:08.606Z,3.67
2018-08-24T16:01:11.728Z,4.73
2018-08-24T16:04:14.793Z,4.30
2018-08-24T16:07:18.064Z,6.27
2018-08-24T16:10:21.141Z,4.13
2018-08-24T16:13:24.202Z,7.50
2018-08-24T16:16:27.367Z,4.27
2018-08-24T16:19:30.408Z,3.53
2018-08-24T16:22:33.482Z,3.63
2018-08-24T16:25:36.526Z,4.93
2018-08-24T16:28:39.582Z,5.70
2018-08-24T16:31:42.654Z,5.27
2018-08-24T16:34:45.734Z,5.60
2018-08-24T16:37:48.782Z,4.30
2018-08-24T16:40:51.858Z,7.37
2018-08-24T16:43:54.933Z,8.13
2018-08-24T16:46:58.005Z,11.13
2018-08-24T16:50:01.065Z,4.03
2018-08-24T16:53:04.145Z,5.50
2018-08-24T16:56:08.402Z,7.80
2018-08-24T16:59:11.491Z,6.83
2018-08-24T17:02:15.021Z,10.17
2018-08-24T17:05:19.188Z,4.10
2018-08-24T17:08:22.270Z,8.40
2018-08-24T17:11:25.341Z,5.97
2018-08-24T17:14:28.453Z,5.37
2018-08-24T17:17:31.546Z,7.80
2018-08-24T17:20:34.619Z,4.80
2018-08-24T17:23:37.675Z,6.83
2018-08-24T17:26:40.773Z,6.90
2018-08-24T17:29:43.850Z,3.73
2018-08-24T17:32:46.957Z,5.43
2018-08-24T17:35:50.064Z,7.13
2018-08-24T17:38:53.161Z,4.43
2018-08-24T17:41:56.334Z,6.13
2018-08-24T17:45:03.274Z,5.33
2018-08-24T17:48:06.517Z,5.43
2018-08-24T17:51:09.686Z,8.00
2018-08-24T17:54:13.067Z,5.70
2018-08-24T17:57:18.772Z,6.43
2018-08-24T18:00:21.994Z,6.57
2018-08-24T18:03:25.186Z,6.03
2018-08-24T18:06:28.418Z,8.70
2018-08-24T18:09:31.832Z,7.70
2018-08-24T18:12:35.237Z,8.93
2018-08-24T18:15:38.672Z,6.53
2018-08-24T18:18:41.923Z,4.70
2018-08-24T18:21:45.934Z,4.77
2018-08-24T18:24:49.281Z,4.67
2018-08-24T18:27:52.579Z,6.00
2018-08-24T18:30:56.007Z,12.83
2018-08-24T18:33:59.306Z,6.30
2018-08-24T18:37:02.782Z,4.20
2018-08-24T18:40:06.543Z,7.30
2018-08-24T18:43:09.849Z,14.77
2018-08-24T18:46:13.186Z,5.67
2018-08-24T18:49:16.528Z,5.20
2018-08-24T18:52:19.893Z,7.13
2018-08-24T18:55:23.312Z,6.70
2018-08-24T18:58:26.866Z,6.13
2018-08-24T19:01:30.215Z,6.27
2018-08-24T19:04:33.624Z,7.83
2018-08-24T19:07:36.862Z,4.73
2018-08-24T19:10:45.724Z,3.97
2018-08-24T19:13:49.144Z,4.50
2018-08-24T19:16:52.374Z,4.93
2018-08-24T19:20:01.010Z,8.97
2018-08-24T19:23:04.348Z,5.63
2018-08-24T19:26:07.639Z,6.93
2018-08-24T19:29:16.334Z,5.30
2018-08-24T19:32:19.611Z,6.13
2018-08-24T19:35:22.877Z,5.87
2018-08-24T19:38:26.131Z,6.00
2018-08-24T19:41:34.934Z,4.30
2018-08-24T19:44:38.208Z,8.97
2018-08-24T19:47:46.935Z,13.03
2018-08-24T19:51:13.317Z,5.93
2018-08-24T19:54:17.414Z,3.83
2018-08-24T19:57:26.172Z,5.27
2018-08-24T20:00:29.466Z,7.07
2018-08-24T20:03:32.743Z,6.20
2018-08-24T20:06:41.571Z,8.33
2018-08-24T20:09:50.143Z,4.83
2018-08-24T20:12:53.398Z,4.33
2018-08-24T20:16:02.191Z,3.30
2018-08-24T20:19:05.481Z,4.70
2018-08-24T20:22:15.239Z,4.93
2018-08-24T20:25:18.478Z,8.67
2018-08-24T20:28:21.854Z,9.30
2018-08-24T20:31:25.125Z,4.63
2018-08-24T20:34:28.454Z,5.70
2018-08-24T20:37:31.746Z,5.47
2018-08-24T20:40:35.107Z,8.30
2018-08-24T20:43:38.451Z,6.47
2018-08-24T20:46:41.743Z,7.47
2018-08-24T20:49:44.981Z,4.60
2018-08-24T20:52:48.265Z,4.77
2018-08-24T20:55:51.590Z,3.50
2018-08-24T20:58:54.855Z,7.87
2018-08-24T21:01:58.170Z,3.67
2018-08-24T21:05:01.474Z,5.20
2018-08-24T21:08:04.751Z,7.27
2018-08-24T21:11:07.989Z,6.23
2018-08-24T21:14:11.284Z,4.87
2018-08-24T21:17:14.553Z,3.43
2018-08-24T21:20:17.932Z,7.43
2018-08-24T21:23:21.154Z,4.63
2018-08-24T21:26:31.192Z,6.10
2018-08-24T21:29:34.503Z,6.47
2018-08-24T21:32:37.827Z,2.30
2018-08-24T21:35:41.266Z,4.40
2018-08-24T21:38:44.672Z,3.13
2018-08-24T21:41:48.037Z,3.60
2018-08-24T21:44:51.333Z,2.30
2018-08-24T21:47:54.636Z,3.70
2018-08-24T21:50:59.074Z,7.67
2018-08-24T21:54:02.568Z,3.63
2018-08-24T21:57:05.867Z,3.03
2018-08-24T22:00:13.637Z,3.97
2018-08-24T22:03:16.966Z,3.20
2018-08-24T22:06:20.290Z,3.80
2018-08-24T22:09:23.667Z,4.23
2018-08-24T22:12:26.966Z,4.67
2018-08-24T22:15:30.466Z,5.10
2018-08-24T22:18:33.742Z,4.47
2018-08-24T22:21:37.046Z,5.33
2018-08-24T22:24:40.375Z,2.73
2018-08-24T22:27:43.677Z,2.23
2018-08-24T22:30:46.910Z,4.97
2018-08-24T22:33:50.227Z,2.63
2018-08-24T22:36:53.560Z,3.20
2018-08-24T22:39:56.904Z,2.77
2018-08-24T22:43:00.120Z,5.07
2018-08-24T22:46:03.968Z,4.30
2018-08-24T22:49:07.237Z,3.83
2018-08-24T22:52:10.715Z,3.00
2018-08-24T22:55:14.098Z,5.03
2018-08-24T22:58:17.437Z,4.60
2018-08-24T23:01:21.581Z,5.80
2018-08-24T23:04:25.054Z,4.23
2018-08-24T23:07:28.346Z,6.33
2018-08-24T23:10:31.751Z,4.33
2018-08-24T23:13:35.002Z,5.13
2018-08-24T23:16:38.245Z,3.87
2018-08-24T23:19:41.663Z,4.70
2018-08-24T23:22:45.386Z,3.90
2018-08-24T23:25:48.662Z,3.33
2018-08-24T23:28:51.934Z,4.47
2018-08-24T23:31:55.153Z,4.97
2018-08-24T23:34:58.394Z,4.40
2018-08-24T23:38:01.736Z,3.80
2018-08-24T23:41:05.343Z,4.40
2018-08-24T23:44:09.131Z,5.90
2018-08-24T23:47:12.446Z,2.83
2018-08-24T23:50:15.768Z,2.57
2018-08-24T23:53:19.147Z,4.87
2018-08-24T23:56:22.540Z,3.60
2018-08-24T23:59:25.812Z,3.90
